Time;durP1;ratioP1;P1;durP2;ratioP2;P2;SDS_P1;SDS_P2;PMS_P1;PMS_P2;Temp;Humidity;BMP_temperature;BMP_pressure;BME280_temperature;BME280_humidity;BME280_pressure;Samples;Min_cycle;Max_cycle;Signal;HPM_P1;HPM_P2
2022/01/24 00:01:56;;;;;;;0.80;0.80;;;;;;;-5.82;79.49;100979.59;5008653;28;20062;-83
2022/01/24 00:04:24;;;;;;;0.68;0.68;;;;;;;-5.83;79.32;100972.66;5009142;28;20050;-83
2022/01/24 00:06:51;;;;;;;0.70;0.70;;;;;;;-5.92;79.29;100982.78;5008832;28;20081;-83
2022/01/24 00:09:19;;;;;;;0.68;0.68;;;;;;;-5.95;79.63;100971.59;5010107;28;20104;-82
2022/01/24 00:11:59;;;;;;;0.50;0.50;;;;;;;-6.01;79.54;100979.88;4992771;28;20124;-82
2022/01/24 00:17:04;;;;;;;0.85;0.85;;;;;;;-6.07;79.90;100985.50;5008458;28;20080;-82
2022/01/24 00:27:49;;;;;;;0.60;0.60;;;;;;;-6.22;80.07;101001.22;5011084;28;20124;-82
2022/01/24 00:30:17;;;;;;;0.60;0.60;;;;;;;-6.24;80.15;100995.19;5012067;28;20408;-83
2022/01/24 00:32:45;;;;;;;0.80;0.80;;;;;;;-6.28;80.34;100998.06;5011454;28;20566;-83
2022/01/24 00:35:12;;;;;;;0.80;0.80;;;;;;;-6.34;80.29;100994.88;5012529;28;20081;-83
2022/01/24 00:37:39;;;;;;;0.63;0.63;;;;;;;-6.40;80.18;100991.75;5011661;28;20042;-82
2022/01/24 00:40:07;;;;;;;0.70;0.70;;;;;;;-6.43;80.34;100994.53;5050546;28;20045;-82
2022/01/24 00:42:57;;;;;;;0.70;0.70;;;;;;;-6.42;80.47;100998.88;5049900;28;20080;-82
2022/01/24 00:56:02;;;;;;;0.70;0.70;;;;;;;-6.59;80.68;100999.81;5031919;28;20046;-83
2022/01/24 00:58:33;;;;;;;0.73;0.73;;;;;;;-6.62;80.85;101002.63;5031535;28;20049;-84
2022/01/24 01:01:00;;;;;;;0.60;0.60;;;;;;;-6.68;80.78;101003.81;5030126;28;20057;-82
2022/01/24 01:03:27;;;;;;;0.80;0.80;;;;;;;-6.67;80.90;101017.78;5031524;28;20041;-83
2022/01/24 01:06:06;;;;;;;0.75;0.75;;;;;;;-6.71;80.55;101005.75;5029913;28;20057;-83
2022/01/24 01:19:41;;;;;;;0.88;0.88;;;;;;;-6.76;80.81;101008.63;5029387;28;20427;-83
2022/01/24 01:22:08;;;;;;;0.60;0.60;;;;;;;-6.74;81.15;101009.38;5030877;28;20053;-82
2022/01/24 01:24:43;;;;;;;0.70;0.70;;;;;;;-6.72;81.00;101006.69;5030560;28;20045;-83
2022/01/24 01:27:22;;;;;;;0.85;0.85;;;;;;;-6.72;80.97;101004.91;5029837;28;20099;-83
2022/01/24 01:30:04;;;;;;;0.70;0.70;;;;;;;-6.76;81.01;101008.63;5030849;28;20057;-83
2022/01/24 01:38:02;;;;;;;0.70;0.70;;;;;;;-6.88;80.45;100996.19;5034128;28;20515;-83
2022/01/24 01:56:48;;;;;;;0.68;0.68;;;;;;;-6.82;80.24;101022.09;5033591;28;20045;-83
2022/01/24 01:59:18;;;;;;;0.60;0.60;;;;;;;-6.80;80.32;101020.25;5034220;28;20512;-81
2022/01/24 02:01:45;;;;;;;0.70;0.70;;;;;;;-6.82;80.40;101008.97;5034197;28;20057;-82
2022/01/24 02:04:14;;;;;;;0.68;0.68;;;;;;;-6.82;80.17;101020.31;5033931;28;20046;-82
2022/01/24 02:06:44;;;;;;;0.70;0.70;;;;;;;-6.88;80.45;101011.94;5033769;28;20504;-81
2022/01/24 02:09:13;;;;;;;0.80;0.80;;;;;;;-6.78;80.52;101024.47;5033653;28;20141;-83
2022/01/24 02:11:40;;;;;;;0.73;0.73;;;;;;;-6.78;80.30;101028.88;5033926;28;20481;-81
2022/01/24 02:14:13;;;;;;;0.70;0.70;;;;;;;-6.76;80.26;101033.13;5033731;28;20048;-81
2022/01/24 02:16:53;;;;;;;0.60;0.60;;;;;;;-6.74;80.42;101038.28;5033667;28;20484;-83
2022/01/24 02:24:40;;;;;;;0.65;0.65;;;;;;;-6.87;79.90;101035.47;5033435;28;20049;-82
2022/01/24 02:27:09;;;;;;;0.60;0.60;;;;;;;-6.86;80.00;101031.94;5033253;28;20053;-82
2022/01/24 02:32:11;;;;;;;0.73;0.73;;;;;;;-6.80;80.05;101034.22;5033300;28;20049;-83
2022/01/24 02:34:45;;;;;;;0.60;0.60;;;;;;;-6.76;80.30;101022.63;5033116;28;20531;-82
2022/01/24 02:37:17;;;;;;;0.70;0.70;;;;;;;-6.75;80.25;101026.09;5032236;28;20054;-82
2022/01/24 02:39:48;;;;;;;0.68;0.68;;;;;;;-6.83;80.30;101015.16;5033098;28;20053;-82
2022/01/24 02:51:16;;;;;;;0.60;0.60;;;;;;;-6.77;80.97;101020.06;5032685;28;20049;-82
2022/01/24 02:53:48;;;;;;;0.77;0.77;;;;;;;-6.76;80.84;101032.25;5047080;28;20053;-82
2022/01/24 02:56:17;;;;;;;0.75;0.75;;;;;;;-6.76;81.04;101037.50;5032754;28;20104;-82
2022/01/24 02:58:44;;;;;;;0.70;0.70;;;;;;;-6.73;80.86;101041.75;5032616;28;20095;-82
2022/01/24 03:01:13;;;;;;;0.68;0.68;;;;;;;-6.73;80.84;101032.13;5032545;28;20136;-82
2022/01/24 03:03:43;;;;;;;0.77;0.77;;;;;;;-6.75;80.87;101026.09;5031245;28;20046;-82
2022/01/24 03:06:10;;;;;;;0.60;0.60;;;;;;;-6.74;80.83;101017.28;5032521;28;20152;-83
2022/01/24 03:08:39;;;;;;;0.70;0.70;;;;;;;-6.76;80.90;101020.00;5031225;28;20447;-84
2022/01/24 03:11:07;;;;;;;0.75;0.75;;;;;;;-6.82;80.72;101011.59;5032497;28;20132;-84
2022/01/24 03:13:34;;;;;;;0.80;0.80;;;;;;;-6.83;80.99;101005.50;5032392;28;20056;-84
2022/01/24 03:16:04;;;;;;;0.60;0.60;;;;;;;-6.80;80.87;101001.88;5032166;28;20053;-86
2022/01/24 03:18:32;;;;;;;0.70;0.70;;;;;;;-6.78;80.62;101013.13;5032282;28;20056;-84
2022/01/24 03:21:00;;;;;;;0.55;0.55;;;;;;;-6.79;80.68;101014.03;5032344;28;20049;-87
2022/01/24 03:23:28;;;;;;;0.60;0.60;;;;;;;-6.79;80.67;101021.94;5032507;28;20045;-87
2022/01/24 03:25:55;;;;;;;0.60;0.60;;;;;;;-6.76;80.80;101019.13;5032162;28;20056;-86
2022/01/24 03:28:23;;;;;;;0.70;0.70;;;;;;;-6.76;80.87;101016.50;5031767;28;20049;-84
2022/01/24 03:30:51;;;;;;;0.52;0.52;;;;;;;-6.80;80.87;101013.22;5031777;28;20045;-84
2022/01/24 03:33:19;;;;;;;0.70;0.70;;;;;;;-6.82;80.98;101006.34;5031965;28;20053;-82
2022/01/24 03:35:47;;;;;;;0.63;0.63;;;;;;;-6.83;80.97;101004.66;5031584;28;20049;-82
2022/01/24 03:38:14;;;;;;;0.63;0.63;;;;;;;-6.80;81.07;101009.75;5031691;28;20264;-83
2022/01/24 03:40:41;;;;;;;0.60;0.60;;;;;;;-6.81;80.83;100990.53;5030082;28;20052;-83
2022/01/24 03:43:09;;;;;;;0.70;0.70;;;;;;;-6.69;81.05;101002.09;5031470;28;20103;-86
2022/01/24 03:45:46;;;;;;;0.57;0.57;;;;;;;-6.66;80.95;101001.97;5030685;28;20057;-85
2022/01/24 03:48:37;;;;;;;0.80;0.80;;;;;;;-6.67;80.94;100989.75;5031562;28;20077;-85
2022/01/24 03:51:04;;;;;;;0.80;0.80;;;;;;;-6.62;80.99;100989.50;5031627;28;20053;-85
2022/01/24 03:53:31;;;;;;;0.70;0.70;;;;;;;-6.58;80.80;100976.09;5030284;28;20099;-84
2022/01/24 03:56:00;;;;;;;0.60;0.60;;;;;;;-6.60;80.80;100985.84;5030798;28;20432;-84
2022/01/24 03:58:27;;;;;;;0.65;0.65;;;;;;;-6.56;80.41;100987.38;5031778;28;20052;-88
2022/01/24 04:00:55;;;;;;;0.63;0.63;;;;;;;-6.56;80.44;100989.13;5038960;28;20053;-87
2022/01/24 04:03:26;;;;;;;0.80;0.80;;;;;;;-6.55;80.41;100999.56;5031414;28;20058;-82
2022/01/24 04:05:53;;;;;;;0.90;0.90;;;;;;;-6.59;80.21;101000.66;5031496;28;20103;-86
2022/01/24 04:08:20;;;;;;;0.60;0.60;;;;;;;-6.67;79.77;100997.63;5031912;28;20508;-85
2022/01/24 04:10:51;;;;;;;0.70;0.70;;;;;;;-6.69;79.72;100993.38;5031398;28;20041;-82
2022/01/24 04:13:27;;;;;;;0.80;0.80;;;;;;;-6.73;80.11;100990.09;5033224;28;20428;-90
2022/01/24 04:18:43;;;;;;;0.70;0.70;;;;;;;-6.80;80.07;101000.06;5035810;28;20045;-84
2022/01/24 04:21:27;;;;;;;0.80;0.80;;;;;;;-6.73;80.54;100999.72;5022288;28;20055;-86
2022/01/24 04:24:04;;;;;;;0.70;0.70;;;;;;;-6.71;80.56;100998.72;5036604;28;20068;-85
2022/01/24 04:26:33;;;;;;;0.60;0.60;;;;;;;-6.68;80.43;101003.81;5035338;28;20488;-83
2022/01/24 04:29:00;;;;;;;0.73;0.73;;;;;;;-6.70;80.70;101005.69;4986853;28;20053;-84
2022/01/24 04:31:28;;;;;;;0.85;0.85;;;;;;;-6.72;80.60;101002.28;5037324;28;20144;-86
2022/01/24 04:33:56;;;;;;;0.70;0.70;;;;;;;-6.70;80.74;101008.31;5043135;28;20072;-88
2022/01/24 04:36:24;;;;;;;0.68;0.68;;;;;;;-6.71;80.72;101006.59;5040927;28;20049;-87
2022/01/24 04:38:51;;;;;;;0.70;0.70;;;;;;;-6.74;80.69;101019.91;5033526;28;20061;-86
2022/01/24 04:41:30;;;;;;;0.60;0.60;;;;;;;-6.80;81.04;101007.97;5033372;28;20049;-87
2022/01/24 04:46:59;;;;;;;0.60;0.60;;;;;;;-6.82;80.71;101006.34;5031651;28;20045;-86
2022/01/24 04:52:39;;;;;;;0.80;0.80;;;;;;;-6.85;80.74;101010.00;5031603;28;20076;-86
2022/01/24 04:55:07;;;;;;;0.65;0.65;;;;;;;-6.93;80.39;101009.56;5032365;28;20049;-87
2022/01/24 04:57:34;;;;;;;0.68;0.68;;;;;;;-6.99;80.64;100997.63;5030592;28;20361;-87
2022/01/24 05:00:06;;;;;;;0.80;0.80;;;;;;;-6.89;80.88;101010.22;5029820;28;20057;-85
2022/01/24 05:02:33;;;;;;;0.77;0.77;;;;;;;-6.81;80.66;101018.53;5028347;28;20041;-86
2022/01/24 05:05:00;;;;;;;0.77;0.77;;;;;;;-6.82;80.72;101016.84;5018038;28;20050;-87
2022/01/24 05:07:28;;;;;;;0.85;0.85;;;;;;;-6.82;80.56;101008.97;5014092;28;20054;-87
2022/01/24 05:10:11;;;;;;;0.65;0.65;;;;;;;-6.78;80.74;101016.59;5018424;28;20104;-86
2022/01/24 05:26:01;;;;;;;0.70;0.70;;;;;;;-7.08;80.25;101029.59;5032923;28;20041;-86
2022/01/24 05:28:30;;;;;;;0.70;0.70;;;;;;;-7.10;80.59;101033.25;5025266;28;20045;-85
2022/01/24 05:31:01;;;;;;;0.60;0.60;;;;;;;-7.11;80.67;101031.56;5033614;28;20127;-86
2022/01/24 05:33:29;;;;;;;0.60;0.60;;;;;;;-7.18;80.70;101033.66;5031392;28;20415;-86
2022/01/24 05:35:57;;;;;;;0.82;0.82;;;;;;;-7.15;80.78;101030.88;5028216;28;20045;-85
2022/01/24 05:38:24;;;;;;;0.70;0.70;;;;;;;-7.21;80.81;101036.44;5033642;28;20041;-85
2022/01/24 05:40:52;;;;;;;0.90;0.90;;;;;;;-7.20;80.83;101040.75;5033589;28;20073;-84
2022/01/24 05:43:19;;;;;;;0.65;0.65;;;;;;;-7.18;81.00;101044.16;5035289;28;20087;-85
2022/01/24 05:45:47;;;;;;;0.68;0.68;;;;;;;-7.26;80.94;101038.47;5031990;28;20107;-85
2022/01/24 05:48:19;;;;;;;0.60;0.60;;;;;;;-7.30;80.88;101040.38;5033744;28;20397;-86
2022/01/24 05:50:46;;;;;;;0.80;0.80;;;;;;;-7.39;81.04;101037.38;5034123;28;20397;-85
2022/01/24 05:53:14;;;;;;;0.90;0.90;;;;;;;-7.36;81.57;101035.47;5026069;28;20054;-84
2022/01/24 05:55:41;;;;;;;0.60;0.60;;;;;;;-7.33;81.55;101034.47;5013937;28;20572;-85
2022/01/24 05:58:08;;;;;;;0.80;0.80;;;;;;;-7.25;81.54;101035.75;5017252;28;20209;-84
2022/01/24 06:00:35;;;;;;;0.68;0.68;;;;;;;-7.15;81.63;101046.59;4675265;28;10000045;-82
2022/01/24 06:03:02;;;;;;;0.75;0.75;;;;;;;-7.10;81.41;101044.59;5017596;28;20461;-84
2022/01/24 06:05:29;;;;;;;0.65;0.65;;;;;;;-7.14;81.38;101032.56;5024558;28;20128;-86
2022/01/24 06:07:57;;;;;;;0.75;0.75;;;;;;;-7.05;81.35;101036.47;5028147;28;20123;-83
2022/01/24 06:10:24;;;;;;;0.70;0.70;;;;;;;-7.03;81.57;101035.47;5030228;28;20111;-87
2022/01/24 06:12:51;;;;;;;0.80;0.80;;;;;;;-7.00;81.37;101034.44;5029408;28;20531;-84
2022/01/24 06:15:18;;;;;;;0.68;0.68;;;;;;;-7.00;81.31;101035.28;5030901;28;20045;-83
2022/01/24 06:17:45;;;;;;;0.77;0.77;;;;;;;-7.02;81.38;101047.63;5029064;28;20045;-85
2022/01/24 06:20:12;;;;;;;0.70;0.70;;;;;;;-7.04;81.59;101039.03;5029562;28;20061;-85
2022/01/24 06:22:40;;;;;;;0.70;0.70;;;;;;;-6.95;81.47;101037.66;5020542;28;20053;-87
2022/01/24 06:25:09;;;;;;;0.70;0.70;;;;;;;-7.01;81.55;101035.38;5027407;28;20049;-87
2022/01/24 06:27:41;;;;;;;0.90;0.90;;;;;;;-7.05;81.48;101044.34;5034297;28;20060;-92
2022/01/24 06:30:11;;;;;;;0.82;0.82;;;;;;;-7.02;81.43;101031.88;5020896;28;20045;-89
2022/01/24 06:32:39;;;;;;;0.85;0.85;;;;;;;-6.91;81.51;101033.09;5030411;28;20060;-84
2022/01/24 06:35:08;;;;;;;0.80;0.80;;;;;;;-6.82;81.49;101030.81;5029805;28;20576;-88
2022/01/24 06:37:36;;;;;;;0.70;0.70;;;;;;;-6.81;81.00;101022.03;5029337;28;20468;-85
2022/01/24 06:40:05;;;;;;;0.60;0.60;;;;;;;-6.73;81.02;101026.00;5023779;28;20081;-88
2022/01/24 06:42:32;;;;;;;0.70;0.70;;;;;;;-6.68;80.51;101027.44;5011871;28;20053;-85
2022/01/24 06:44:59;;;;;;;0.80;0.80;;;;;;;-6.73;80.39;101032.13;5012790;28;20049;-85
2022/01/24 06:47:26;;;;;;;0.80;0.80;;;;;;;-6.77;80.51;101028.78;5018321;28;20050;-84
2022/01/24 06:49:53;;;;;;;0.82;0.82;;;;;;;-6.85;79.85;101024.91;5009858;28;20057;-87
2022/01/24 06:52:20;;;;;;;0.82;0.82;;;;;;;-6.91;79.71;101027.84;5009836;28;20196;-86
2022/01/24 06:54:48;;;;;;;0.80;0.80;;;;;;;-6.94;79.60;101034.09;5013430;28;20159;-84
2022/01/24 06:57:16;;;;;;;0.70;0.70;;;;;;;-7.02;79.43;101031.06;5026086;28;20045;-82
2022/01/24 06:59:45;;;;;;;0.80;0.80;;;;;;;-6.94;79.73;101038.50;5016818;28;20052;-83
2022/01/24 07:02:16;;;;;;;0.70;0.70;;;;;;;-7.00;79.80;101035.28;5015361;28;20081;-83
2022/01/24 07:04:44;;;;;;;0.80;0.80;;;;;;;-6.92;79.70;101041.91;5028199;28;20053;-82
2022/01/24 07:07:12;;;;;;;0.70;0.70;;;;;;;-6.94;79.82;101036.72;5028756;28;20397;-82
2022/01/24 07:09:41;;;;;;;0.80;0.80;;;;;;;-6.90;79.84;101045.31;5029597;28;20045;-86
2022/01/24 07:12:08;;;;;;;0.80;0.80;;;;;;;-6.86;79.85;101044.19;5005194;28;20033;-83
2022/01/24 07:14:36;;;;;;;0.68;0.68;;;;;;;-6.82;80.32;101040.47;5010806;28;20067;-84
2022/01/24 07:19:33;;;;;;;0.70;0.70;;;;;;;-6.83;80.00;101041.44;5020853;28;20100;-84
2022/01/24 07:22:08;;;;;;;0.63;0.63;;;;;;;-6.86;80.01;101038.94;5018436;28;20141;-86
2022/01/24 07:24:36;;;;;;;0.75;0.75;;;;;;;-6.87;80.13;101035.47;5019302;28;20057;-86
2022/01/24 07:27:04;;;;;;;0.70;0.70;;;;;;;-6.85;79.83;101038.88;5021861;28;20104;-86
2022/01/24 07:29:32;;;;;;;0.60;0.60;;;;;;;-6.85;79.89;101036.25;5030861;28;20064;-86
2022/01/24 07:32:00;;;;;;;0.60;0.60;;;;;;;-6.87;79.91;101026.75;5018247;28;20046;-86
2022/01/24 07:34:27;;;;;;;0.90;0.90;;;;;;;-6.81;79.80;101034.28;5023809;28;20050;-85
2022/01/24 07:36:55;;;;;;;0.70;0.70;;;;;;;-6.78;79.65;101040.25;5017695;28;20046;-84
2022/01/24 07:39:23;;;;;;;0.80;0.80;;;;;;;-6.77;79.41;101028.78;5018032;28;20053;-84
2022/01/24 07:41:52;;;;;;;0.80;0.80;;;;;;;-6.73;79.55;101039.13;5018494;28;20081;-86
2022/01/24 07:44:20;;;;;;;0.60;0.60;;;;;;;-6.71;78.98;101038.09;5009755;28;20061;-83
2022/01/24 07:46:48;;;;;;;0.68;0.68;;;;;;;-6.81;78.96;101045.66;5019972;28;20049;-83
2022/01/24 07:49:16;;;;;;;0.77;0.77;;;;;;;-6.88;78.68;101048.69;5027556;28;20054;-84
2022/01/24 07:51:46;;;;;;;0.70;0.70;;;;;;;-6.94;78.53;101028.00;5033796;28;20061;-86
2022/01/24 07:54:13;;;;;;;0.85;0.85;;;;;;;-6.93;78.64;101043.69;5039010;28;20080;-86
2022/01/24 07:56:40;;;;;;;0.70;0.70;;;;;;;-6.95;78.67;101039.47;5027281;28;20180;-86
2022/01/24 07:59:07;;;;;;;0.88;0.88;;;;;;;-6.90;78.97;101043.53;5017581;28;20050;-83
2022/01/24 08:01:34;;;;;;;0.65;0.65;;;;;;;-6.87;78.79;101039.88;5022550;28;20060;-84
2022/01/24 08:04:02;;;;;;;0.80;0.80;;;;;;;-6.88;78.71;101043.44;5031247;28;20504;-84
2022/01/24 08:06:31;;;;;;;0.70;0.70;;;;;;;-6.92;78.57;101041.91;5022641;28;20053;-85
2022/01/24 08:08:59;;;;;;;0.80;0.80;;;;;;;-6.89;78.59;101039.13;5016926;28;20046;-83
2022/01/24 08:11:26;;;;;;;0.90;0.90;;;;;;;-6.79;78.51;101035.06;5011654;28;20475;-89
2022/01/24 08:13:59;;;;;;;0.77;0.77;;;;;;;-6.77;78.12;101033.19;5021401;28;20144;-85
2022/01/24 08:16:26;;;;;;;0.80;0.80;;;;;;;-6.91;77.30;101035.72;5024741;28;20049;-84
2022/01/24 08:18:59;;;;;;;0.80;0.80;;;;;;;-6.95;77.38;101028.97;5028602;28;20057;-83
2022/01/24 08:21:27;;;;;;;0.65;0.65;;;;;;;-6.99;77.51;101025.63;5025828;28;20042;-82
2022/01/24 08:24:00;;;;;;;1.00;1.00;;;;;;;-6.86;77.81;101038.94;5018460;28;20041;-84
2022/01/24 08:26:28;;;;;;;0.88;0.88;;;;;;;-6.81;77.45;101039.53;5029948;28;20073;-83
2022/01/24 08:28:55;;;;;;;0.65;0.65;;;;;;;-6.74;77.43;101046.16;5025070;28;20090;-84
2022/01/24 08:31:22;;;;;;;0.60;0.60;;;;;;;-6.78;77.37;101036.78;5030912;28;20136;-85
2022/01/24 08:33:50;;;;;;;0.80;0.80;;;;;;;-6.83;77.50;101051.94;5029815;28;20140;-84
2022/01/24 08:36:17;;;;;;;0.85;0.85;;;;;;;-6.83;77.73;101051.94;5043787;28;20117;-84
2022/01/24 08:38:47;;;;;;;0.70;0.70;;;;;;;-6.82;77.51;101037.84;5027672;28;20049;-84
2022/01/24 08:41:22;;;;;;;0.65;0.65;;;;;;;-6.98;77.54;101032.59;5025093;28;20058;-82
2022/01/24 08:46:19;;;;;;;0.73;0.73;;;;;;;-6.89;77.56;101034.69;5035350;28;20072;-87
2022/01/24 08:48:51;;;;;;;0.60;0.60;;;;;;;-6.80;77.24;101036.00;5035931;28;20057;-86
2022/01/24 08:51:19;;;;;;;0.60;0.60;;;;;;;-6.90;77.17;101032.19;5033889;28;20080;-84
2022/01/24 08:54:05;;;;;;;0.70;0.70;;;;;;;-6.91;77.21;101033.97;5016206;28;20149;-85
2022/01/24 08:56:36;;;;;;;0.75;0.75;;;;;;;-6.87;76.92;101019.72;5018507;28;20053;-87
2022/01/24 08:59:05;;;;;;;0.70;0.70;;;;;;;-6.71;76.86;101026.75;5025370;28;20528;-88
2022/01/24 09:01:33;;;;;;;0.70;0.70;;;;;;;-6.63;77.24;101029.84;5017372;28;20052;-83
2022/01/24 09:04:01;;;;;;;0.80;0.80;;;;;;;-6.62;77.13;101032.34;5034750;28;20455;-84
2022/01/24 09:06:29;;;;;;;0.77;0.77;;;;;;;-6.69;76.82;101023.13;5030542;28;20084;-85
2022/01/24 09:09:00;;;;;;;0.70;0.70;;;;;;;-6.70;76.64;101028.47;5023494;28;20124;-84
2022/01/24 09:11:29;;;;;;;0.80;0.80;;;;;;;-6.68;76.80;101024.81;5015563;28;20055;-84
2022/01/24 09:13:57;;;;;;;0.60;0.60;;;;;;;-6.78;76.66;101015.75;5013754;28;20428;-84
2022/01/24 09:16:24;;;;;;;0.70;0.70;;;;;;;-6.87;76.71;101011.84;5029427;28;20100;-85
2022/01/24 09:18:52;;;;;;;0.60;0.60;;;;;;;-6.90;77.19;101006.75;5026422;28;20527;-87
2022/01/24 09:21:22;;;;;;;0.80;0.80;;;;;;;-6.79;77.13;101003.53;5021014;28;20060;-85
2022/01/24 09:23:49;;;;;;;1.00;1.00;;;;;;;-6.72;76.71;101004.06;5016112;28;20050;-84
2022/01/24 09:26:20;;;;;;;0.70;0.70;;;;;;;-6.79;76.81;100995.66;5019113;28;20057;-85
2022/01/24 09:28:47;;;;;;;0.90;0.90;;;;;;;-6.74;76.92;101009.38;5030964;28;20037;-85
2022/01/24 09:31:15;;;;;;;0.80;0.80;;;;;;;-6.72;76.79;100999.66;5031385;28;20422;-86
2022/01/24 09:33:42;;;;;;;0.70;0.70;;;;;;;-6.62;76.53;101003.47;5010935;28;20111;-87
2022/01/24 09:36:09;;;;;;;0.85;0.85;;;;;;;-6.58;76.31;101004.16;5021184;28;20109;-85
2022/01/24 09:38:37;;;;;;;0.90;0.90;;;;;;;-6.76;75.75;101001.63;5014530;28;20052;-85
2022/01/24 09:41:09;;;;;;;0.75;0.75;;;;;;;-6.90;76.18;100998.88;5014425;28;20053;-85
2022/01/24 09:43:37;;;;;;;0.70;0.70;;;;;;;-6.92;76.38;101000.75;5017996;28;20049;-87
2022/01/24 09:46:04;;;;;;;0.95;0.95;;;;;;;-7.01;76.73;100983.72;5006163;28;20056;-85
2022/01/24 09:48:32;;;;;;;0.70;0.70;;;;;;;-6.92;76.81;100994.66;5012638;28;20050;-85
2022/01/24 09:50:59;;;;;;;0.90;0.90;;;;;;;-6.95;76.68;100990.41;5010660;28;20084;-85
2022/01/24 09:53:29;;;;;;;0.60;0.60;;;;;;;-6.98;76.57;100990.59;5016212;28;20080;-92
2022/01/24 09:55:59;;;;;;;0.80;0.80;;;;;;;-6.98;76.86;100983.56;5018974;28;20046;-89
2022/01/24 09:58:26;;;;;;;0.73;0.73;;;;;;;-7.02;76.67;100982.03;5017221;28;20052;-85
2022/01/24 10:00:53;;;;;;;0.90;0.90;;;;;;;-7.08;76.89;100977.13;5021068;28;20137;-86
2022/01/24 10:03:28;;;;;;;0.70;0.70;;;;;;;-7.11;77.23;100977.28;5030330;28;20099;-86
2022/01/24 10:06:09;;;;;;;0.68;0.68;;;;;;;-7.09;77.24;100977.19;5006025;28;20052;-86
2022/01/24 10:08:36;;;;;;;0.70;0.70;;;;;;;-6.99;77.36;100984.50;5019254;28;20070;-87
2022/01/24 10:11:08;;;;;;;0.80;0.80;;;;;;;-6.93;77.43;100971.97;5014879;28;20045;-86
2022/01/24 10:16:44;;;;;;;0.70;0.70;;;;;;;-7.14;76.78;100955.59;5019970;28;20056;-85
2022/01/24 10:19:15;;;;;;;0.68;0.68;;;;;;;-7.04;77.11;100964.66;5024384;28;20049;-86
2022/01/24 10:22:02;;;;;;;0.70;0.70;;;;;;;-7.02;76.91;100963.66;5023238;28;20042;-85
2022/01/24 10:24:42;;;;;;;0.73;0.73;;;;;;;-7.07;76.88;100959.59;5018536;28;20096;-84
2022/01/24 10:27:25;;;;;;;0.80;0.80;;;;;;;-7.05;76.85;100963.81;5025625;28;20527;-86
2022/01/24 10:29:59;;;;;;;0.70;0.70;;;;;;;-7.06;76.45;100961.31;5027602;28;20050;-85
2022/01/24 10:32:34;;;;;;;0.82;0.82;;;;;;;-7.18;76.79;100957.56;5034396;28;20049;-85
2022/01/24 10:35:22;;;;;;;0.90;0.90;;;;;;;-7.27;76.69;100958.03;5033913;28;20388;-85
2022/01/24 10:38:12;;;;;;;1.00;1.00;;;;;;;-7.24;77.00;100953.50;5028242;28;20053;-85
2022/01/24 10:43:34;;;;;;;0.80;0.80;;;;;;;-7.28;77.09;100945.88;4997952;28;20049;-86
2022/01/24 10:46:02;;;;;;;0.82;0.82;;;;;;;-7.36;77.18;100950.69;5011894;28;20501;-85
2022/01/24 10:48:32;;;;;;;1.00;1.00;;;;;;;-7.33;77.41;100953.97;4974224;28;20054;-85
2022/01/24 10:51:15;;;;;;;0.68;0.68;;;;;;;-7.38;77.45;100934.16;4990178;28;20540;-86
2022/01/24 10:53:56;;;;;;;0.88;0.88;;;;;;;-7.36;77.61;100934.94;4981623;28;20472;-85
2022/01/24 10:56:38;;;;;;;0.80;0.80;;;;;;;-7.35;77.73;100928.75;4951770;28;20506;-86
2022/01/24 10:59:11;;;;;;;1.00;1.00;;;;;;;-7.28;77.87;100938.00;4989038;28;20082;-86
2022/01/24 11:01:41;;;;;;;0.70;0.70;;;;;;;-7.25;77.82;100933.41;4990183;28;20061;-86
2022/01/24 11:04:13;;;;;;;0.82;0.82;;;;;;;-7.30;77.59;100924.09;4975142;28;20050;-86
2022/01/24 11:06:46;;;;;;;0.65;0.65;;;;;;;-7.40;77.95;100931.63;4991391;28;20046;-85
2022/01/24 11:09:18;;;;;;;1.05;1.05;;;;;;;-7.48;77.84;100921.53;4970655;28;20482;-85
2022/01/24 11:11:46;;;;;;;0.82;0.82;;;;;;;-7.58;78.37;100916.88;5003174;28;20193;-85
2022/01/24 11:14:17;;;;;;;0.80;0.80;;;;;;;-7.61;78.43;100925.75;4994323;28;20631;-84
2022/01/24 11:16:44;;;;;;;0.70;0.70;;;;;;;-7.62;78.66;100929.31;4991598;28;20080;-82
2022/01/24 11:19:18;;;;;;;0.80;0.80;;;;;;;-7.58;78.44;100916.88;4987993;28;20744;-84
2022/01/24 11:21:46;;;;;;;0.88;0.88;;;;;;;-7.59;78.68;100921.28;5027778;28;20077;-81
2022/01/24 11:24:19;;;;;;;0.90;0.90;;;;;;;-7.63;78.89;100924.97;5016719;28;20463;-83
2022/01/24 11:26:46;;;;;;;0.73;0.73;;;;;;;-7.59;78.64;100920.44;5012260;28;20049;-83
2022/01/24 11:29:19;;;;;;;0.85;0.85;;;;;;;-7.66;78.67;100920.75;5014488;28;20046;-85
2022/01/24 11:31:56;;;;;;;0.88;0.88;;;;;;;-7.67;78.76;100918.19;5023379;28;20378;-83
2022/01/24 11:34:47;;;;;;;0.80;0.80;;;;;;;-7.68;79.10;100921.75;5014795;28;20053;-83
2022/01/24 11:37:36;;;;;;;1.00;1.00;;;;;;;-7.70;79.07;100913.97;5028229;28;20053;-84
2022/01/24 11:40:08;;;;;;;0.80;0.80;;;;;;;-7.66;79.04;100905.00;5024821;28;20060;-84
2022/01/24 11:42:36;;;;;;;0.90;0.90;;;;;;;-7.52;79.18;100900.78;5021344;28;20053;-85
2022/01/24 11:45:45;;;;;;;0.80;0.80;;;;;;;-7.56;79.04;100900.13;5026358;28;20056;-87
2022/01/24 11:48:20;;;;;;;0.90;0.90;;;;;;;-7.69;78.91;100896.47;5015385;28;20213;-85
2022/01/24 11:51:03;;;;;;;;;;;;;;;-7.72;79.20;100894.88;5032639;28;20523;-85
2022/01/24 11:53:32;;;;;;;0.80;0.80;;;;;;;-7.71;79.37;100891.31;5022224;28;20330;-85
2022/01/24 11:56:26;;;;;;;1.30;1.20;;;;;;;-7.79;79.38;100890.88;5019914;28;20053;-86
2022/01/24 11:59:18;;;;;;;0.88;0.88;;;;;;;-7.83;79.42;100886.69;5016485;28;20053;-87
2022/01/24 12:01:52;;;;;;;0.88;0.88;;;;;;;-7.82;79.85;100888.41;5014440;28;20505;-85
2022/01/24 12:04:48;;;;;;;1.00;1.00;;;;;;;-7.82;79.61;100879.69;5024648;28;20088;-86
2022/01/24 12:07:20;;;;;;;0.80;0.80;;;;;;;-7.81;79.70;100873.53;5030505;28;20054;-85
2022/01/24 12:09:48;;;;;;;0.70;0.70;;;;;;;-7.81;79.83;100869.13;5030728;28;20101;-85
2022/01/24 12:12:48;;;;;;;0.80;0.80;;;;;;;-7.76;79.85;100866.25;5025761;28;20058;-84
2022/01/24 12:15:38;;;;;;;0.77;0.77;;;;;;;-7.72;79.96;100863.41;5024588;28;20408;-85
2022/01/24 12:18:28;;;;;;;0.80;0.80;;;;;;;-7.64;79.86;100860.38;5031219;28;20057;-85
2022/01/24 12:20:59;;;;;;;0.77;0.77;;;;;;;-7.54;79.74;100860.72;4681711;28;10001001;-85
2022/01/24 12:23:39;;;;;;;0.90;0.90;;;;;;;-7.49;79.35;100851.66;5025141;28;20073;-83
2022/01/24 12:26:29;;;;;;;0.75;0.75;;;;;;;-7.53;79.00;100850.13;5019513;28;20103;-84
2022/01/24 12:29:07;;;;;;;0.60;0.60;;;;;;;-7.54;79.18;100848.44;5027960;28;20054;-84
2022/01/24 12:31:48;;;;;;;0.85;0.85;;;;;;;-7.59;78.94;100854.88;5019898;28;20041;-85
2022/01/24 12:34:18;;;;;;;0.80;0.80;;;;;;;-7.68;79.14;100843.09;5010906;28;20168;-85
2022/01/24 12:36:53;;;;;;;0.60;0.60;;;;;;;-7.73;79.05;100843.34;5009458;28;20045;-83
2022/01/24 12:39:20;;;;;;;0.93;0.93;;;;;;;-7.67;79.07;100850.03;5019472;28;20096;-84
2022/01/24 12:41:53;;;;;;;0.90;0.90;;;;;;;-7.67;79.05;100856.13;5016686;28;20397;-85
2022/01/24 12:47:10;;;;;;;0.90;0.90;;;;;;;-7.71;79.46;100859.00;5007906;28;20562;-85
2022/01/24 12:49:42;;;;;;;0.70;0.70;;;;;;;-7.79;79.44;100866.44;5024180;28;20061;-84
2022/01/24 12:52:22;;;;;;;0.63;0.63;;;;;;;-7.87;79.48;100874.72;5028121;28;20053;-84
2022/01/24 12:54:55;;;;;;;0.77;0.77;;;;;;;-8.02;79.58;100862.41;4986946;28;20064;-83
2022/01/24 12:57:29;;;;;;;0.90;0.90;;;;;;;-8.12;79.77;100864.66;5006111;28;20050;-86
2022/01/24 13:00:04;;;;;;;0.70;0.70;;;;;;;-8.10;80.11;100863.66;5014201;28;20046;-84
2022/01/24 13:02:38;;;;;;;0.80;0.80;;;;;;;-8.17;80.19;100871.91;5014146;28;20050;-84
2022/01/24 13:05:14;;;;;;;0.70;0.70;;;;;;;-8.35;80.49;100863.22;5024661;28;20069;-88
2022/01/24 13:07:48;;;;;;;0.90;0.90;;;;;;;-8.31;80.91;100869.97;5018418;28;20422;-83
2022/01/24 13:10:18;;;;;;;0.73;0.73;;;;;;;-8.29;81.13;100862.91;5007218;28;20161;-86
2022/01/24 13:12:59;;;;;;;0.63;0.63;;;;;;;-8.21;81.07;100865.13;5013532;28;20054;-85
2022/01/24 13:20:30;;;;;;;0.80;0.80;;;;;;;-8.36;80.92;100862.34;5011787;28;20056;-84
2022/01/24 13:21:09;;;;;;;0.75;0.75;;;;;;;-8.44;81.43;100856.69;5010918;28;20467;-87
2022/01/24 13:23:43;;;;;;;0.85;0.85;;;;;;;-8.37;81.56;100857.22;5015039;28;20061;-87
2022/01/24 13:26:11;;;;;;;0.82;0.82;;;;;;;-8.36;81.23;100858.88;5020111;28;20052;-87
2022/01/24 13:28:43;;;;;;;0.80;0.80;;;;;;;-8.36;81.52;100857.13;5017694;28;20050;-87
2022/01/24 13:31:13;;;;;;;0.85;0.85;;;;;;;-8.40;81.58;100860.03;5023038;28;20052;-88
2022/01/24 13:33:45;;;;;;;0.88;0.88;;;;;;;-8.36;81.67;100858.88;5027630;28;20168;-90